Thargomindah, Australia
Current Conditions -  °F | °C
As of 6:00 AM on Saturday 22 Nov 2014 (Local Time) from YBCV Reporting Station
Clear Clear  
Wind Chill: 25°   Ceiling: Unl
Heat Index: 26°   Visibility: 6mi
Dew Point: 12°   Wind: 0mph
Humidity: 44%   Direction: NA
Pressure: 29.88"   Gusts: NA
Location:  28°S, 143.82°E
Report Text: YBCV 212000Z AUTO 00000KT 9999 // NCD 25/12 Q1012
Loading
Personal Weather Stations






























Interactive Weather Map New forecast layout! Learn more

10-Day Weather Forecast

Advertisements
Track Severe Weather on mobile